createdAt,value
2022-10-26T00:00:53.136Z,97834.25
2022-10-26T00:03:19.736Z,97844.41
2022-10-26T00:05:46.360Z,97851.50
2022-10-26T00:08:12.949Z,97847.22
2022-10-26T00:10:39.561Z,97842.41
2022-10-26T00:13:06.205Z,97852.94
2022-10-26T00:15:32.821Z,97843.53
2022-10-26T00:17:59.466Z,97845.66
2022-10-26T00:20:26.123Z,97847.56
2022-10-26T00:22:52.745Z,97849.06
2022-10-26T00:25:19.329Z,97844.22
2022-10-26T00:27:46.106Z,97845.44
2022-10-26T00:30:12.886Z,97847.09
2022-10-26T00:35:17.110Z,97838.56
2022-10-26T00:37:51.045Z,97838.38
2022-10-26T00:40:17.917Z,97835.72
2022-10-26T00:42:44.595Z,97828.47
2022-10-26T00:45:11.247Z,97834.28
2022-10-26T00:47:37.906Z,97837.25
2022-10-26T00:50:04.524Z,97828.66
2022-10-26T00:52:31.143Z,97824.81
2022-10-26T00:54:57.742Z,97827.50
2022-10-26T00:57:24.915Z,97829.94
2022-10-26T00:59:51.560Z,97829.19
2022-10-26T01:02:18.170Z,97832.44
2022-10-26T01:04:44.772Z,97824.75
2022-10-26T01:07:11.372Z,97830.25
2022-10-26T01:09:38.015Z,97835.13
2022-10-26T01:12:04.678Z,97828.31
2022-10-26T01:14:31.332Z,97823.97
2022-10-26T01:16:58.000Z,97828.31
2022-10-26T01:19:26.535Z,97822.09
2022-10-26T01:21:53.194Z,97816.19
2022-10-26T01:24:19.815Z,97810.31
2022-10-26T01:26:46.591Z,97813.72
2022-10-26T01:29:13.271Z,97814.00
2022-10-26T01:31:39.861Z,97814.72
2022-10-26T01:34:06.482Z,97813.06
2022-10-26T01:39:04.592Z,97811.09
2022-10-26T01:41:31.217Z,97806.16
2022-10-26T01:43:57.814Z,97801.53
2022-10-26T01:46:24.455Z,97799.31
2022-10-26T01:48:51.084Z,97802.84
2022-10-26T01:51:17.703Z,97802.97
2022-10-26T01:53:44.334Z,97791.13
2022-10-26T01:56:10.945Z,97801.06
2022-10-26T01:58:37.594Z,97795.53
2022-10-26T02:01:04.242Z,97800.44
2022-10-26T02:03:30.969Z,97790.97
2022-10-26T02:05:57.605Z,97799.66
2022-10-26T02:08:24.263Z,97791.88
2022-10-26T02:10:50.855Z,97787.44
2022-10-26T02:13:17.491Z,97788.25
2022-10-26T02:15:44.090Z,97786.00
2022-10-26T02:18:10.719Z,97781.38
2022-10-26T02:20:37.326Z,97779.84
2022-10-26T02:23:03.912Z,97777.25
2022-10-26T02:25:30.544Z,97777.13
2022-10-26T02:27:57.130Z,97777.16
2022-10-26T02:30:23.750Z,97775.50
2022-10-26T02:32:50.377Z,97768.22
2022-10-26T02:35:17.008Z,97774.63
2022-10-26T02:37:43.621Z,97771.91
2022-10-26T02:40:10.243Z,97771.50
2022-10-26T02:42:36.860Z,97766.34
2022-10-26T02:45:03.455Z,97755.75
2022-10-26T02:47:30.048Z,97759.88
2022-10-26T02:49:56.662Z,97768.75
2022-10-26T02:52:23.285Z,97767.16
2022-10-26T02:54:49.876Z,97763.97
2022-10-26T02:57:16.489Z,97772.28
2022-10-26T02:59:43.124Z,97768.03
2022-10-26T03:02:09.723Z,97769.69
2022-10-26T03:04:36.347Z,97764.69
2022-10-26T03:07:02.953Z,97768.81
2022-10-26T03:09:29.574Z,97765.63
2022-10-26T03:11:56.193Z,97769.91
2022-10-26T03:14:22.770Z,97770.75
2022-10-26T03:16:49.368Z,97783.31
2022-10-26T03:19:15.989Z,97779.13
2022-10-26T03:21:42.602Z,97774.09
2022-10-26T03:24:09.188Z,97775.22
2022-10-26T03:26:35.810Z,97783.53
2022-10-26T03:29:02.398Z,97786.47
2022-10-26T03:31:29.021Z,97786.50
2022-10-26T03:33:55.653Z,97789.59
2022-10-26T03:36:22.266Z,97792.38
2022-10-26T03:38:48.852Z,97789.78
2022-10-26T03:41:15.491Z,97787.56
2022-10-26T03:43:42.113Z,97792.59
2022-10-26T03:46:09.410Z,97787.13
2022-10-26T03:48:36.057Z,97784.13
2022-10-26T03:51:02.682Z,97782.38
2022-10-26T03:53:29.283Z,97777.25
2022-10-26T03:55:55.895Z,97773.91
2022-10-26T03:58:22.595Z,97774.97
2022-10-26T04:00:49.315Z,97771.75
2022-10-26T04:03:15.991Z,97770.34
2022-10-26T04:05:42.617Z,97771.91
2022-10-26T04:08:09.231Z,97771.94
2022-10-26T04:10:35.827Z,97771.00
2022-10-26T04:13:02.448Z,97752.69
2022-10-26T04:15:29.241Z,97754.59
2022-10-26T04:17:55.968Z,97760.38
2022-10-26T04:20:22.591Z,97766.75
2022-10-26T04:22:49.213Z,97767.16
2022-10-26T04:25:15.822Z,97763.69
2022-10-26T04:27:42.436Z,97760.66
2022-10-26T04:30:09.036Z,97772.97
2022-10-26T04:32:35.686Z,97771.75
2022-10-26T04:35:02.303Z,97771.97
2022-10-26T04:37:28.899Z,97768.19
2022-10-26T04:39:55.554Z,97766.13
2022-10-26T04:42:22.199Z,97756.00
2022-10-26T04:44:48.805Z,97756.31
2022-10-26T04:47:15.417Z,97755.75
2022-10-26T04:49:42.014Z,97754.19
2022-10-26T04:52:08.632Z,97761.25
2022-10-26T04:54:35.223Z,97761.25
2022-10-26T04:57:01.843Z,97763.28
2022-10-26T04:59:28.462Z,97752.34
2022-10-26T05:01:55.136Z,97754.59
2022-10-26T05:04:21.881Z,97757.78
2022-10-26T05:06:48.469Z,97755.19
2022-10-26T05:09:15.124Z,97761.31
2022-10-26T05:11:41.763Z,97755.97
2022-10-26T05:14:08.354Z,97763.66
2022-10-26T05:16:34.999Z,97758.25
2022-10-26T05:19:01.620Z,97764.50
2022-10-26T05:21:28.259Z,97773.47
2022-10-26T05:23:54.874Z,97768.75
2022-10-26T05:26:21.478Z,97768.00
2022-10-26T05:28:48.085Z,97766.94
2022-10-26T05:31:14.674Z,97771.31
2022-10-26T05:33:41.327Z,97770.19
2022-10-26T05:36:07.980Z,97763.22
2022-10-26T05:38:34.665Z,97773.34
2022-10-26T05:41:01.326Z,97765.09
2022-10-26T05:43:27.968Z,97765.44
2022-10-26T05:45:54.568Z,97767.31
2022-10-26T05:48:21.184Z,97770.16
2022-10-26T05:50:47.782Z,97770.69
2022-10-26T05:53:14.401Z,97766.03
2022-10-26T05:55:41.574Z,97775.81
2022-10-26T05:58:08.205Z,97770.63
2022-10-26T06:00:35.009Z,97764.88
2022-10-26T06:03:01.634Z,97768.84
2022-10-26T06:05:28.255Z,97757.53
2022-10-26T06:07:54.844Z,97767.75
2022-10-26T06:10:21.458Z,97768.63
2022-10-26T06:12:48.400Z,97773.03
2022-10-26T06:15:15.306Z,97776.06
2022-10-26T06:17:42.106Z,97781.84
2022-10-26T06:20:08.830Z,97783.75
2022-10-26T06:22:35.482Z,97784.97
2022-10-26T06:25:02.103Z,97788.66
2022-10-26T06:27:28.701Z,97790.63
2022-10-26T06:29:55.318Z,97787.78
2022-10-26T06:32:21.923Z,97787.59
2022-10-26T06:34:48.599Z,97794.16
2022-10-26T06:37:15.228Z,97789.91
2022-10-26T06:39:41.839Z,97790.19
2022-10-26T06:42:08.488Z,97786.94
2022-10-26T06:44:35.108Z,97796.31
2022-10-26T06:47:01.743Z,97787.78
2022-10-26T06:49:28.366Z,97795.28
2022-10-26T06:51:55.019Z,97798.56
2022-10-26T06:54:21.608Z,97814.47
2022-10-26T06:56:48.288Z,97812.44
2022-10-26T06:59:14.894Z,97800.59
2022-10-26T07:01:41.617Z,97794.91
2022-10-26T07:04:08.327Z,97810.78
2022-10-26T07:06:36.900Z,97811.63
2022-10-26T07:09:05.815Z,97818.94
2022-10-26T07:11:32.520Z,97820.38
2022-10-26T07:13:59.148Z,97820.19
2022-10-26T07:16:25.749Z,97817.94
2022-10-26T07:18:52.425Z,97816.91
2022-10-26T07:21:19.036Z,97820.56
2022-10-26T07:23:45.620Z,97818.13
2022-10-26T07:26:12.278Z,97830.50
2022-10-26T07:28:38.871Z,97836.72
2022-10-26T07:31:05.521Z,97824.81
2022-10-26T07:33:32.148Z,97824.56
2022-10-26T07:35:58.772Z,97827.13
2022-10-26T07:38:25.614Z,97825.66
2022-10-26T07:40:52.206Z,97824.78
2022-10-26T07:43:18.805Z,97826.75
2022-10-26T07:45:45.427Z,97823.72
2022-10-26T07:48:12.068Z,97830.66
2022-10-26T07:50:38.685Z,97815.97
2022-10-26T07:53:05.305Z,97819.13
2022-10-26T07:55:31.898Z,97825.00
2022-10-26T07:57:58.687Z,97833.09
2022-10-26T08:00:25.438Z,97831.00
2022-10-26T08:02:52.090Z,97830.50
2022-10-26T08:05:18.727Z,97829.34
2022-10-26T08:07:45.659Z,97827.69
2022-10-26T08:10:12.322Z,97835.53
2022-10-26T08:12:38.916Z,97829.47
2022-10-26T08:15:05.558Z,97835.88
2022-10-26T08:17:32.194Z,97843.53
2022-10-26T08:19:58.795Z,97840.34
2022-10-26T08:22:25.414Z,97842.53
2022-10-26T08:24:52.017Z,97845.56
2022-10-26T08:27:18.652Z,97845.03
2022-10-26T08:29:45.254Z,97843.56
2022-10-26T08:32:11.891Z,97835.41
2022-10-26T08:34:38.503Z,97845.44
2022-10-26T08:37:05.130Z,97847.44
2022-10-26T08:39:31.769Z,97851.75
2022-10-26T08:41:58.416Z,97861.06
2022-10-26T08:44:25.038Z,97848.94
2022-10-26T08:46:51.641Z,97851.34
2022-10-26T08:49:18.264Z,97848.75
2022-10-26T08:51:44.866Z,97844.19
2022-10-26T08:54:11.500Z,97846.69
2022-10-26T08:56:38.089Z,97852.75
2022-10-26T08:59:04.717Z,97843.31
2022-10-26T09:01:31.380Z,97836.84
2022-10-26T09:03:58.075Z,97834.97
2022-10-26T09:06:24.709Z,97841.53
2022-10-26T09:08:51.342Z,97854.72
2022-10-26T09:11:17.983Z,97845.50
2022-10-26T09:13:44.623Z,97852.00
2022-10-26T09:16:11.224Z,97844.25
2022-10-26T09:18:37.939Z,97849.06
2022-10-26T09:21:04.590Z,97856.88
2022-10-26T09:23:31.177Z,97860.03
2022-10-26T09:25:57.846Z,97869.16
2022-10-26T09:28:24.434Z,97866.75
2022-10-26T09:30:51.107Z,97864.38
2022-10-26T09:33:17.742Z,97863.16
2022-10-26T09:35:44.367Z,97878.66
2022-10-26T09:38:10.968Z,97878.56
2022-10-26T09:40:37.588Z,97874.81
2022-10-26T09:43:04.211Z,97885.47
2022-10-26T09:45:30.857Z,97879.59
2022-10-26T09:47:57.463Z,97885.97
2022-10-26T09:50:24.090Z,97891.31
2022-10-26T09:52:51.008Z,97895.84
2022-10-26T09:55:17.858Z,97897.47
2022-10-26T09:57:44.510Z,97897.22
2022-10-26T10:00:11.128Z,97898.63
2022-10-26T10:02:37.798Z,97895.16
2022-10-26T10:05:04.494Z,97897.69
2022-10-26T10:07:31.116Z,97893.50
2022-10-26T10:09:57.728Z,97897.34
2022-10-26T10:12:24.327Z,97894.78
2022-10-26T10:14:50.964Z,97888.53
2022-10-26T10:19:49.043Z,97893.53
2022-10-26T10:22:15.661Z,97896.50
2022-10-26T10:24:42.419Z,97891.09
2022-10-26T10:27:09.027Z,97883.75
2022-10-26T10:29:35.641Z,97886.13
2022-10-26T10:32:02.315Z,97890.75
2022-10-26T10:34:28.903Z,97891.06
2022-10-26T10:36:55.525Z,97881.84
2022-10-26T10:39:22.171Z,97880.16
2022-10-26T10:41:48.863Z,97876.94
2022-10-26T10:44:15.548Z,97867.38
2022-10-26T10:46:42.142Z,97872.78
2022-10-26T10:49:08.786Z,97874.28
2022-10-26T10:51:35.407Z,97869.31
2022-10-26T10:54:02.033Z,97863.31
2022-10-26T10:56:28.659Z,97867.09
2022-10-26T10:58:55.262Z,97858.41
2022-10-26T11:01:22.179Z,97859.53
2022-10-26T11:03:48.850Z,97865.56
2022-10-26T11:06:15.503Z,97870.28
2022-10-26T11:08:42.124Z,97870.69
2022-10-26T11:11:08.724Z,97858.78
2022-10-26T11:13:35.362Z,97855.97
2022-10-26T11:16:02.011Z,97859.63
2022-10-26T11:18:28.602Z,97861.66
2022-10-26T11:20:55.280Z,97861.00
2022-10-26T11:23:21.897Z,97857.34
2022-10-26T11:25:48.519Z,97859.09
2022-10-26T11:28:15.137Z,97862.81
2022-10-26T11:30:41.776Z,97854.75
2022-10-26T11:33:08.392Z,97857.13
2022-10-26T11:35:35.004Z,97859.25
2022-10-26T11:38:01.658Z,97862.25
2022-10-26T11:40:28.302Z,97857.41
2022-10-26T11:42:54.940Z,97862.22
2022-10-26T11:45:21.536Z,97857.25
2022-10-26T11:47:48.507Z,97858.28
2022-10-26T11:50:17.399Z,97865.31
2022-10-26T11:52:44.391Z,97857.25
2022-10-26T11:55:11.007Z,97850.50
2022-10-26T11:57:37.603Z,97859.28
2022-10-26T12:00:04.249Z,97863.13
2022-10-26T12:02:30.868Z,97869.41
2022-10-26T12:04:57.796Z,97861.38
2022-10-26T12:07:24.385Z,97864.66
2022-10-26T12:09:51.005Z,97865.16
2022-10-26T12:12:17.643Z,97874.31
2022-10-26T12:14:44.259Z,97869.75
2022-10-26T12:17:10.870Z,97862.47
2022-10-26T12:19:37.485Z,97870.81
2022-10-26T12:22:04.094Z,97869.72
2022-10-26T12:24:30.732Z,97866.53
2022-10-26T12:26:57.351Z,97873.78
2022-10-26T12:29:23.944Z,97872.41
2022-10-26T12:31:50.567Z,97876.69
2022-10-26T12:34:17.169Z,97871.88
2022-10-26T12:36:43.781Z,97869.75
2022-10-26T12:39:10.383Z,97878.06
2022-10-26T12:44:21.240Z,97878.00
2022-10-26T12:46:47.860Z,97867.38
2022-10-26T12:49:14.496Z,97860.97
2022-10-26T12:51:41.106Z,97866.19
2022-10-26T12:54:07.726Z,97866.97
2022-10-26T12:56:34.326Z,97870.84
2022-10-26T12:59:04.478Z,97872.00
2022-10-26T13:01:31.657Z,97870.75
2022-10-26T13:03:58.473Z,97870.81
2022-10-26T13:06:25.085Z,97877.97
2022-10-26T13:08:56.239Z,97884.25
2022-10-26T13:11:25.583Z,97890.47
2022-10-26T13:13:52.193Z,97893.03
2022-10-26T13:16:18.812Z,97886.41
2022-10-26T13:18:45.428Z,97877.88
2022-10-26T13:21:12.053Z,97872.53
2022-10-26T13:23:38.675Z,97883.94
2022-10-26T13:26:05.266Z,97885.75
2022-10-26T13:28:31.873Z,97892.75
2022-10-26T13:30:58.458Z,97896.09
2022-10-26T13:33:25.088Z,97901.94
2022-10-26T13:35:51.707Z,97907.06
2022-10-26T13:38:18.323Z,97901.81
2022-10-26T13:40:44.951Z,97903.84
2022-10-26T13:43:11.613Z,97912.69
2022-10-26T13:45:38.211Z,97923.72
2022-10-26T13:48:04.837Z,97917.31
2022-10-26T13:50:32.211Z,97911.47
2022-10-26T13:52:58.941Z,97911.84
2022-10-26T13:55:25.580Z,97915.66
2022-10-26T13:57:52.181Z,97925.22
2022-10-26T14:00:18.814Z,97928.16
2022-10-26T14:02:45.469Z,97923.47
2022-10-26T14:05:12.085Z,97931.34
2022-10-26T14:07:38.704Z,97932.47
2022-10-26T14:10:05.483Z,97932.69
2022-10-26T14:12:32.155Z,97928.84
2022-10-26T14:14:58.779Z,97943.88
2022-10-26T14:17:25.412Z,97936.00
2022-10-26T14:19:52.001Z,97932.22
2022-10-26T14:22:22.908Z,97930.59
2022-10-26T14:24:49.985Z,97934.31
2022-10-26T14:27:16.647Z,97939.09
2022-10-26T14:29:46.911Z,97939.75
2022-10-26T14:32:16.602Z,97929.94
2022-10-26T14:34:43.318Z,97937.38
2022-10-26T14:37:09.913Z,97932.28
2022-10-26T14:39:36.540Z,97947.16
2022-10-26T14:42:03.152Z,97946.06
2022-10-26T14:44:29.761Z,97945.09
2022-10-26T14:46:56.348Z,97947.78
2022-10-26T14:49:23.174Z,97955.22
2022-10-26T14:51:49.779Z,97951.13
2022-10-26T14:54:16.455Z,97958.91
2022-10-26T14:56:43.099Z,97951.66
2022-10-26T14:59:09.703Z,97953.84
2022-10-26T15:01:36.864Z,97947.84
2022-10-26T15:04:03.636Z,97957.72
2022-10-26T15:06:30.257Z,97965.94
2022-10-26T15:08:57.527Z,97970.59
2022-10-26T15:11:24.228Z,97972.09
2022-10-26T15:13:50.824Z,97980.00
2022-10-26T15:16:17.466Z,97979.16
2022-10-26T15:18:44.073Z,97977.75
2022-10-26T15:21:10.736Z,97971.53
2022-10-26T15:23:37.357Z,97980.84
2022-10-26T15:26:03.992Z,97982.41
2022-10-26T15:28:30.615Z,97981.84
2022-10-26T15:31:00.556Z,97989.66
2022-10-26T15:33:27.674Z,97993.41
2022-10-26T15:35:54.291Z,97998.28
2022-10-26T15:38:20.909Z,97996.31
2022-10-26T15:40:47.518Z,98002.94
2022-10-26T15:43:14.150Z,98009.81
2022-10-26T15:45:40.806Z,98011.00
2022-10-26T15:48:07.449Z,98005.81
2022-10-26T15:50:35.612Z,98008.41
2022-10-26T15:53:04.449Z,98013.00
2022-10-26T15:55:31.074Z,98011.47
2022-10-26T15:57:57.707Z,98025.56
2022-10-26T16:00:24.557Z,98021.63
2022-10-26T16:02:51.158Z,98021.41
2022-10-26T16:05:17.811Z,98021.88
2022-10-26T16:07:44.519Z,98033.25
2022-10-26T16:10:11.118Z,98030.13
2022-10-26T16:12:38.479Z,98033.84
2022-10-26T16:15:06.102Z,98036.28
2022-10-26T16:17:33.139Z,98036.63
2022-10-26T16:19:59.780Z,98051.91
2022-10-26T16:22:26.405Z,98048.38
2022-10-26T16:24:53.009Z,98050.34
2022-10-26T16:27:19.687Z,98056.16
2022-10-26T16:29:46.330Z,98048.22
2022-10-26T16:32:12.943Z,98061.44
2022-10-26T16:34:39.560Z,98054.56
2022-10-26T16:37:06.158Z,98064.28
2022-10-26T16:39:32.767Z,98062.66
2022-10-26T16:41:59.384Z,98067.41
2022-10-26T16:44:25.979Z,98074.41
2022-10-26T16:46:52.606Z,98088.09
2022-10-26T16:49:19.265Z,98087.13
2022-10-26T16:51:45.926Z,98080.78
2022-10-26T16:54:12.561Z,98082.50
2022-10-26T16:56:39.175Z,98097.53
2022-10-26T16:59:05.788Z,98100.22
2022-10-26T17:01:32.568Z,98104.44
2022-10-26T17:03:59.351Z,98108.06
2022-10-26T17:06:25.991Z,98120.47
2022-10-26T17:08:52.662Z,98113.47
2022-10-26T17:11:19.262Z,98111.59
2022-10-26T17:13:45.929Z,98105.91
2022-10-26T17:16:12.546Z,98110.94
2022-10-26T17:18:39.158Z,98110.69
2022-10-26T17:21:08.588Z,98117.03
2022-10-26T17:23:35.196Z,98120.09
2022-10-26T17:26:01.829Z,98118.13
2022-10-26T17:28:28.469Z,98130.78
2022-10-26T17:30:55.092Z,98138.72
2022-10-26T17:33:21.751Z,98132.06
2022-10-26T17:35:48.351Z,98141.03
2022-10-26T17:38:14.950Z,98147.91
2022-10-26T17:40:41.574Z,98157.09
2022-10-26T17:43:08.195Z,98156.34
2022-10-26T17:45:34.855Z,98163.28
2022-10-26T17:48:01.457Z,98162.06
2022-10-26T17:50:28.199Z,98173.69
2022-10-26T17:52:54.807Z,98175.34
2022-10-26T17:55:21.610Z,98177.16
2022-10-26T17:57:48.465Z,98180.63
2022-10-26T18:00:15.281Z,98185.53
2022-10-26T18:02:42.297Z,98173.91
2022-10-26T18:05:09.222Z,98184.13
2022-10-26T18:07:35.893Z,98194.63
2022-10-26T18:10:14.066Z,98176.81
2022-10-26T18:12:49.477Z,98175.16
2022-10-26T18:15:16.351Z,98182.16
2022-10-26T18:17:42.949Z,98202.81
2022-10-26T18:20:09.596Z,98204.66
2022-10-26T18:22:36.213Z,98205.69
2022-10-26T18:25:02.850Z,98206.00
2022-10-26T18:27:29.474Z,98202.28
2022-10-26T18:29:56.099Z,98209.44
2022-10-26T18:32:22.686Z,98209.22
2022-10-26T18:34:49.355Z,98210.50
2022-10-26T18:37:16.028Z,98211.09
2022-10-26T18:39:42.620Z,98212.91
2022-10-26T18:42:09.271Z,98215.16
2022-10-26T18:44:35.875Z,98210.81
2022-10-26T18:47:02.511Z,98217.34
2022-10-26T18:49:29.162Z,98212.91
2022-10-26T18:51:55.823Z,98211.66
2022-10-26T18:54:22.452Z,98207.94
2022-10-26T18:56:49.057Z,98208.75
2022-10-26T18:59:15.704Z,98218.94
2022-10-26T19:01:42.698Z,98222.75
2022-10-26T19:04:09.576Z,98220.59
2022-10-26T19:06:36.273Z,98222.69
2022-10-26T19:09:02.977Z,98223.84
2022-10-26T19:11:29.579Z,98227.66
2022-10-26T19:13:56.231Z,98232.53
2022-10-26T19:16:43.911Z,98230.31
2022-10-26T19:19:09.515Z,98234.22
2022-10-26T19:21:36.171Z,98222.59
2022-10-26T19:24:03.163Z,98240.81
2022-10-26T19:26:34.235Z,98238.75
2022-10-26T19:29:01.950Z,98241.38
2022-10-26T19:31:28.670Z,98243.22
2022-10-26T19:33:55.317Z,98255.09
2022-10-26T19:36:21.959Z,98253.88
2022-10-26T19:38:48.569Z,98253.28
2022-10-26T19:41:15.257Z,98249.97
2022-10-26T19:43:41.867Z,98238.50
2022-10-26T19:46:08.507Z,98240.38
2022-10-26T19:48:35.234Z,98247.97
2022-10-26T19:51:01.874Z,98251.22
2022-10-26T19:53:28.515Z,98251.63
2022-10-26T19:55:55.143Z,98251.44
2022-10-26T19:58:21.817Z,98256.16
2022-10-26T20:00:48.477Z,98267.41
2022-10-26T20:03:15.190Z,98275.00
2022-10-26T20:05:41.958Z,98271.94
2022-10-26T20:08:08.585Z,98273.81
2022-10-26T20:10:35.201Z,98275.88
2022-10-26T20:13:01.834Z,98281.97
2022-10-26T20:15:28.467Z,98279.28
2022-10-26T20:17:55.095Z,98282.19
2022-10-26T20:20:21.705Z,98286.91
2022-10-26T20:22:48.924Z,98283.19
2022-10-26T20:25:15.760Z,98295.03
2022-10-26T20:27:42.360Z,98301.59
2022-10-26T20:30:08.996Z,98298.00
2022-10-26T20:32:35.612Z,98291.88
2022-10-26T20:35:02.218Z,98291.66
2022-10-26T20:37:28.852Z,98298.38
2022-10-26T20:39:55.478Z,98300.22
2022-10-26T20:42:22.098Z,98307.81
2022-10-26T20:44:48.700Z,98303.50
2022-10-26T20:47:15.368Z,98297.81
2022-10-26T20:49:44.075Z,98290.84
2022-10-26T20:52:25.498Z,98300.03
2022-10-26T20:54:52.132Z,98301.25
2022-10-26T20:57:18.761Z,98299.41
2022-10-26T20:59:45.360Z,98294.69
2022-10-26T21:02:12.004Z,98293.47
2022-10-26T21:04:38.682Z,98295.72
2022-10-26T21:07:05.273Z,98292.66
2022-10-26T21:09:34.248Z,98290.66
2022-10-26T21:12:03.510Z,98288.19
2022-10-26T21:14:30.123Z,98285.13
2022-10-26T21:16:56.720Z,98295.94
2022-10-26T21:19:23.353Z,98291.03
2022-10-26T21:21:50.015Z,98289.81
2022-10-26T21:24:16.622Z,98296.97
2022-10-26T21:26:43.236Z,98291.66
2022-10-26T21:29:09.832Z,98289.41
2022-10-26T21:31:36.454Z,98296.34
2022-10-26T21:36:47.298Z,98291.91
2022-10-26T21:39:13.911Z,98291.66
2022-10-26T21:41:40.654Z,98284.69
2022-10-26T21:44:09.142Z,98291.66
2022-10-26T21:46:36.984Z,98285.75
2022-10-26T21:49:03.605Z,98295.13
2022-10-26T21:51:30.223Z,98297.41
2022-10-26T21:53:56.827Z,98302.13
2022-10-26T21:56:23.469Z,98299.84
2022-10-26T21:58:50.053Z,98285.75
2022-10-26T22:01:16.743Z,98288.59
2022-10-26T22:03:43.432Z,98300.88
2022-10-26T22:06:10.086Z,98288.59
2022-10-26T22:08:37.101Z,98293.09
2022-10-26T22:11:03.698Z,98300.69
2022-10-26T22:13:30.309Z,98298.03
2022-10-26T22:15:56.933Z,98296.38
2022-10-26T22:18:23.514Z,98299.22
2022-10-26T22:20:50.123Z,98305.97
2022-10-26T22:23:16.742Z,98304.56
2022-10-26T22:25:43.374Z,98307.41
2022-10-26T22:28:09.989Z,98310.06
2022-10-26T22:30:36.609Z,98318.25
2022-10-26T22:33:03.273Z,98321.31
2022-10-26T22:35:30.193Z,98320.88
2022-10-26T22:37:56.924Z,98320.88
2022-10-26T22:40:23.553Z,98315.78
2022-10-26T22:42:50.472Z,98317.81
2022-10-26T22:45:17.228Z,98327.03
2022-10-26T22:47:43.867Z,98323.69
2022-10-26T22:50:10.477Z,98320.06
2022-10-26T22:52:37.111Z,98326.78
2022-10-26T22:55:03.785Z,98334.53
2022-10-26T22:57:30.723Z,98333.09
2022-10-26T22:59:57.331Z,98333.63
2022-10-26T23:02:23.958Z,98328.72
2022-10-26T23:04:50.602Z,98329.53
2022-10-26T23:07:17.198Z,98324.41
2022-10-26T23:09:43.787Z,98321.59
2022-10-26T23:12:10.420Z,98333.00
2022-10-26T23:14:37.035Z,98330.34
2022-10-26T23:17:03.638Z,98325.03
2022-10-26T23:19:30.297Z,98337.44
2022-10-26T23:21:56.945Z,98333.56
2022-10-26T23:24:23.618Z,98334.91
2022-10-26T23:26:50.274Z,98333.09
2022-10-26T23:29:16.931Z,98336.91
2022-10-26T23:31:43.552Z,98335.28
2022-10-26T23:34:10.148Z,98335.94
2022-10-26T23:36:36.803Z,98329.63
2022-10-26T23:39:03.397Z,98335.50
2022-10-26T23:41:30.022Z,98346.88
2022-10-26T23:43:56.616Z,98347.44
2022-10-26T23:46:23.244Z,98351.03
2022-10-26T23:48:49.891Z,98347.84
2022-10-26T23:51:16.494Z,98350.31
2022-10-26T23:53:43.120Z,98344.59
2022-10-26T23:56:09.734Z,98350.03
2022-10-26T23:58:36.348Z,98344.00
